Time;durP1;ratioP1;P1;durP2;ratioP2;P2;SDS_P1;SDS_P2;PMS_P1;PMS_P2;Temp;Humidity;BMP_temperature;BMP_pressure;BME280_temperature;BME280_humidity;BME280_pressure;Samples;Min_cycle;Max_cycle;Signal;HPM_P1;HPM_P2
2021/03/08 00:00:41;;;;;;;10.65;6.63;;;;;;;;;;5051832;28;20035;-77
2021/03/08 00:03:08;;;;;;;9.68;6.72;;;;;;;;;;5053608;28;20074;-85
2021/03/08 00:05:34;;;;;;;11.00;6.57;;;;;;;;;;5053403;28;20063;-85
2021/03/08 00:08:00;;;;;;;12.27;7.18;;;;;;;;;;5052336;28;20027;-74
2021/03/08 00:10:26;;;;;;;9.25;6.65;;;;;;;;;;5053119;28;20085;-86
2021/03/08 00:12:53;;;;;;;11.48;6.97;;;;;;;;;;5052954;28;20017;-84
2021/03/08 00:15:20;;;;;;;9.68;6.68;;;;;;;;;;5053068;28;20053;-85
2021/03/08 00:17:47;;;;;;;10.25;6.50;;;;;;;;;;5051919;28;20025;-86
2021/03/08 00:20:14;;;;;;;10.63;6.30;;;;;;;;;;5052930;28;20032;-84
2021/03/08 00:22:40;;;;;;;9.82;6.60;;;;;;;;;;5052938;28;20021;-85
2021/03/08 00:25:07;;;;;;;10.30;6.68;;;;;;;;;;5052784;28;20107;-85
2021/03/08 00:27:33;;;;;;;8.60;6.22;;;;;;;;;;5051598;28;20021;-79
2021/03/08 00:29:59;;;;;;;10.18;6.70;;;;;;;;;;5052585;28;20585;-83
2021/03/08 00:32:26;;;;;;;10.13;7.05;;;;;;;;;;5051627;28;20401;-81
2021/03/08 00:34:52;;;;;;;11.52;7.50;;;;;;;;;;5052453;28;20048;-84
2021/03/08 00:37:18;;;;;;;13.07;7.43;;;;;;;;;;5052472;28;20009;-85
2021/03/08 00:39:44;;;;;;;9.55;6.15;;;;;;;;;;5051353;28;20693;-85
2021/03/08 00:42:10;;;;;;;10.52;6.65;;;;;;;;;;5052742;28;20470;-75
2021/03/08 00:44:36;;;;;;;10.70;7.30;;;;;;;;;;5051144;28;20051;-85
2021/03/08 00:47:02;;;;;;;11.65;7.07;;;;;;;;;;5052471;28;20056;-84
2021/03/08 00:49:28;;;;;;;10.82;7.22;;;;;;;;;;5052638;28;20028;-85
2021/03/08 00:51:54;;;;;;;11.57;7.22;;;;;;;;;;5051313;28;20033;-85
2021/03/08 00:54:20;;;;;;;9.38;6.28;;;;;;;;;;5052458;28;20025;-85
2021/03/08 00:56:46;;;;;;;10.60;6.80;;;;;;;;;;5052611;28;20021;-86
2021/03/08 00:59:12;;;;;;;13.13;7.18;;;;;;;;;;5052264;28;20090;-84
2021/03/08 01:01:38;;;;;;;12.05;6.80;;;;;;;;;;5052331;28;20066;-83
2021/03/08 01:04:04;;;;;;;9.40;7.20;;;;;;;;;;5052141;28;20017;-86
2021/03/08 01:06:30;;;;;;;10.25;6.97;;;;;;;;;;5051125;28;20033;-85
2021/03/08 01:08:56;;;;;;;10.65;7.13;;;;;;;;;;5051363;28;20115;-85
2021/03/08 01:11:22;;;;;;;11.27;7.15;;;;;;;;;;5050724;28;20025;-85
2021/03/08 01:13:49;;;;;;;11.20;6.90;;;;;;;;;;5051608;28;20460;-85
2021/03/08 01:16:15;;;;;;;11.45;7.00;;;;;;;;;;5052444;28;20110;-86
2021/03/08 01:18:41;;;;;;;11.50;7.57;;;;;;;;;;5050852;28;20377;-85
2021/03/08 01:21:07;;;;;;;10.23;7.43;;;;;;;;;;5051588;28;20056;-76
2021/03/08 01:23:33;;;;;;;12.95;7.60;;;;;;;;;;5052085;28;20096;-80
2021/03/08 01:25:59;;;;;;;12.55;7.88;;;;;;;;;;5052086;28;20040;-85
2021/03/08 01:28:25;;;;;;;9.70;6.95;;;;;;;;;;5050580;28;20117;-86
2021/03/08 01:30:51;;;;;;;11.68;7.50;;;;;;;;;;5051914;28;20071;-86
2021/03/08 01:33:18;;;;;;;10.45;7.55;;;;;;;;;;5051776;28;20152;-85
2021/03/08 01:35:44;;;;;;;11.93;7.75;;;;;;;;;;5052049;28;20558;-86
2021/03/08 01:38:10;;;;;;;11.50;7.65;;;;;;;;;;5051006;28;20020;-86
2021/03/08 01:40:38;;;;;;;10.75;7.30;;;;;;;;;;5051907;28;20038;-74
2021/03/08 01:43:04;;;;;;;10.70;7.25;;;;;;;;;;5052065;28;20045;-85
2021/03/08 01:45:30;;;;;;;10.30;7.45;;;;;;;;;;5051811;28;20099;-82
2021/03/08 01:47:57;;;;;;;12.63;7.63;;;;;;;;;;5050703;28;20032;-83
2021/03/08 01:50:25;;;;;;;10.35;7.13;;;;;;;;;;5051717;28;20025;-84
2021/03/08 01:52:52;;;;;;;11.73;7.80;;;;;;;;;;5051661;28;20048;-82
2021/03/08 01:55:19;;;;;;;13.02;7.35;;;;;;;;;;5050540;28;20021;-84
2021/03/08 01:57:45;;;;;;;10.88;7.43;;;;;;;;;;5050426;28;20032;-85
2021/03/08 02:00:12;;;;;;;13.38;7.43;;;;;;;;;;5050434;28;20074;-82
2021/03/08 02:02:38;;;;;;;11.43;7.72;;;;;;;;;;5051655;28;20147;-85
2021/03/08 02:05:06;;;;;;;12.95;7.80;;;;;;;;;;5051563;28;20037;-85
2021/03/08 02:07:32;;;;;;;11.38;7.57;;;;;;;;;;5051743;28;20500;-85
2021/03/08 02:09:58;;;;;;;10.63;7.15;;;;;;;;;;5051679;28;20032;-85
2021/03/08 02:12:24;;;;;;;10.98;7.13;;;;;;;;;;5051489;28;20025;-85
2021/03/08 02:15:13;;;;;;;11.43;7.80;;;;;;;;;;5051296;28;20374;-75
2021/03/08 02:17:51;;;;;;;9.77;6.80;;;;;;;;;;5050251;28;20051;-84
2021/03/08 02:20:17;;;;;;;10.80;7.03;;;;;;;;;;5050358;28;20040;-84
2021/03/08 02:22:43;;;;;;;11.50;7.57;;;;;;;;;;5051630;28;20029;-84
2021/03/08 02:25:14;;;;;;;10.73;6.93;;;;;;;;;;5053617;28;20473;-83
2021/03/08 02:27:59;;;;;;;11.00;6.97;;;;;;;;;;5053827;28;20036;-79
2021/03/08 02:30:31;;;;;;;11.98;7.75;;;;;;;;;;5054776;28;20023;-86
2021/03/08 02:32:57;;;;;;;10.82;7.47;;;;;;;;;;5055585;28;20028;-85
2021/03/08 02:35:25;;;;;;;10.98;7.15;;;;;;;;;;5054926;28;20693;-86
2021/03/08 02:37:53;;;;;;;10.40;7.32;;;;;;;;;;5054744;28;20021;-83
2021/03/08 02:40:21;;;;;;;10.27;7.15;;;;;;;;;;5054609;28;20024;-83
2021/03/08 02:42:49;;;;;;;10.77;7.50;;;;;;;;;;5054753;28;20432;-85
2021/03/08 02:45:16;;;;;;;11.25;7.22;;;;;;;;;;5053344;28;20115;-79
2021/03/08 02:47:45;;;;;;;11.25;6.80;;;;;;;;;;5055066;28;20029;-76
2021/03/08 02:50:12;;;;;;;10.27;7.00;;;;;;;;;;5053001;28;20027;-83
2021/03/08 02:52:40;;;;;;;10.80;7.38;;;;;;;;;;5053123;28;20040;-79
2021/03/08 02:55:07;;;;;;;12.77;7.53;;;;;;;;;;5053380;28;20021;-84
2021/03/08 02:57:37;;;;;;;9.63;6.55;;;;;;;;;;5053455;28;20508;-84
2021/03/08 03:00:06;;;;;;;10.35;7.18;;;;;;;;;;5053367;28;20033;-86
2021/03/08 03:02:32;;;;;;;11.15;7.32;;;;;;;;;;5054515;28;20025;-85
2021/03/08 03:04:58;;;;;;;11.30;7.38;;;;;;;;;;5054249;28;20056;-85
2021/03/08 03:07:25;;;;;;;12.50;7.72;;;;;;;;;;5054266;28;20032;-78
2021/03/08 03:09:52;;;;;;;10.20;6.75;;;;;;;;;;5053063;28;20025;-85
2021/03/08 03:12:18;;;;;;;10.85;7.13;;;;;;;;;;5052938;28;20032;-85
2021/03/08 03:14:44;;;;;;;9.70;6.60;;;;;;;;;;5054321;28;20571;-75
2021/03/08 03:17:13;;;;;;;10.23;7.00;;;;;;;;;;5054244;28;20025;-83
2021/03/08 03:19:42;;;;;;;9.85;7.03;;;;;;;;;;5054335;28;20025;-83
2021/03/08 03:22:09;;;;;;;10.98;7.30;;;;;;;;;;5054021;28;20196;-86
2021/03/08 03:24:35;;;;;;;10.65;7.63;;;;;;;;;;5054322;28;20028;-85
2021/03/08 03:27:03;;;;;;;9.40;6.63;;;;;;;;;;5054007;28;20490;-85
2021/03/08 03:29:30;;;;;;;10.80;7.22;;;;;;;;;;5054376;28;20493;-83
2021/03/08 03:31:56;;;;;;;11.85;7.03;;;;;;;;;;5053968;28;20025;-86
2021/03/08 03:34:22;;;;;;;10.15;6.60;;;;;;;;;;5052600;28;20025;-86
2021/03/08 03:36:50;;;;;;;11.45;7.20;;;;;;;;;;5052030;28;20032;-83
2021/03/08 03:39:16;;;;;;;10.40;6.97;;;;;;;;;;5052553;28;20021;-85
2021/03/08 03:41:42;;;;;;;11.00;6.75;;;;;;;;;;5053894;28;20049;-85
2021/03/08 03:44:09;;;;;;;11.65;6.57;;;;;;;;;;5053754;28;20079;-84
2021/03/08 03:46:53;;;;;;;11.00;7.03;;;;;;;;;;5053931;28;20033;-85
2021/03/08 03:49:19;;;;;;;11.57;7.53;;;;;;;;;;5053575;28;20021;-81
2021/03/08 03:51:46;;;;;;;11.85;7.60;;;;;;;;;;5052068;28;20385;-82
2021/03/08 03:54:12;;;;;;;10.45;7.32;;;;;;;;;;5053464;28;20018;-85
2021/03/08 03:56:43;;;;;;;12.13;7.78;;;;;;;;;;5053649;28;20053;-80
2021/03/08 03:59:21;;;;;;;12.23;7.60;;;;;;;;;;5052134;28;20017;-84
2021/03/08 04:01:56;;;;;;;10.35;7.00;;;;;;;;;;5052191;28;20021;-83
2021/03/08 04:04:26;;;;;;;10.88;7.10;;;;;;;;;;5053187;28;20022;-85
2021/03/08 04:06:53;;;;;;;10.40;7.05;;;;;;;;;;5052919;28;20528;-85
2021/03/08 04:09:20;;;;;;;11.95;7.30;;;;;;;;;;5052048;28;20021;-85
2021/03/08 04:11:48;;;;;;;11.45;7.13;;;;;;;;;;5053049;28;20078;-84
2021/03/08 04:14:16;;;;;;;12.38;7.90;;;;;;;;;;5052904;28;20064;-85
2021/03/08 04:16:43;;;;;;;11.18;7.45;;;;;;;;;;5053005;28;20442;-85
2021/03/08 04:19:10;;;;;;;11.40;7.13;;;;;;;;;;5052730;28;20029;-80
2021/03/08 04:21:38;;;;;;;10.85;7.18;;;;;;;;;;5052729;28;20021;-85
2021/03/08 04:24:04;;;;;;;10.50;6.60;;;;;;;;;;5051561;28;20470;-85
2021/03/08 04:26:31;;;;;;;8.73;6.57;;;;;;;;;;5052684;28;20040;-85
2021/03/08 04:28:58;;;;;;;10.18;7.00;;;;;;;;;;5052718;28;20489;-84
2021/03/08 04:31:24;;;;;;;10.35;7.18;;;;;;;;;;5052579;28;20028;-83
2021/03/08 04:33:50;;;;;;;9.75;7.00;;;;;;;;;;5052657;28;20028;-84
2021/03/08 04:36:16;;;;;;;10.15;7.05;;;;;;;;;;5052486;28;20024;-85
2021/03/08 04:38:43;;;;;;;11.60;7.35;;;;;;;;;;5052641;28;20021;-84
2021/03/08 04:41:12;;;;;;;13.65;7.63;;;;;;;;;;5052437;28;20025;-85
2021/03/08 04:43:39;;;;;;;11.43;7.57;;;;;;;;;;5052444;28;20029;-85
2021/03/08 04:46:05;;;;;;;11.35;7.38;;;;;;;;;;5051914;28;20150;-85
2021/03/08 04:48:32;;;;;;;11.35;7.07;;;;;;;;;;5051567;28;20025;-83
2021/03/08 04:50:58;;;;;;;12.35;7.88;;;;;;;;;;5052310;28;20145;-84
2021/03/08 04:53:24;;;;;;;10.38;7.30;;;;;;;;;;5050854;28;20078;-83
2021/03/08 04:55:52;;;;;;;11.05;7.38;;;;;;;;;;5052153;28;20025;-85
2021/03/08 04:58:18;;;;;;;12.00;7.47;;;;;;;;;;5052035;28;20067;-85
2021/03/08 05:00:44;;;;;;;10.48;7.45;;;;;;;;;;5052071;28;20021;-85
2021/03/08 05:03:11;;;;;;;14.00;7.60;;;;;;;;;;5052081;28;20555;-84
2021/03/08 05:05:37;;;;;;;12.18;7.80;;;;;;;;;;5053131;28;20028;-85
2021/03/08 05:08:07;;;;;;;14.80;8.15;;;;;;;;;;5054035;28;20017;-85
2021/03/08 05:10:34;;;;;;;10.68;7.38;;;;;;;;;;5051941;28;20381;-86
2021/03/08 05:13:00;;;;;;;10.93;7.35;;;;;;;;;;5051713;28;20025;-85
2021/03/08 05:15:27;;;;;;;12.75;7.95;;;;;;;;;;5050508;28;20048;-85
2021/03/08 05:17:56;;;;;;;12.07;7.68;;;;;;;;;;5051650;28;20074;-83
2021/03/08 05:20:22;;;;;;;12.57;8.40;;;;;;;;;;5050728;28;20508;-85
2021/03/08 05:22:49;;;;;;;13.65;8.23;;;;;;;;;;5052045;28;20378;-85
2021/03/08 05:25:15;;;;;;;12.45;7.80;;;;;;;;;;5051642;28;20033;-85
2021/03/08 05:27:43;;;;;;;13.73;8.80;;;;;;;;;;5050502;28;20021;-78
2021/03/08 05:30:10;;;;;;;11.65;8.43;;;;;;;;;;5051541;28;20508;-83
2021/03/08 05:32:56;;;;;;;12.07;7.82;;;;;;;;;;5051520;28;20028;-74
2021/03/08 05:35:24;;;;;;;12.77;8.75;;;;;;;;;;5049998;28;20036;-85
2021/03/08 05:37:50;;;;;;;10.75;7.57;;;;;;;;;;5051097;28;20207;-84
2021/03/08 05:40:22;;;;;;;12.90;8.20;;;;;;;;;;5051600;28;20060;-82
2021/03/08 05:42:53;;;;;;;12.77;8.05;;;;;;;;;;5051721;28;20021;-80
2021/03/08 05:45:20;;;;;;;11.75;8.15;;;;;;;;;;5050010;28;20021;-85
2021/03/08 05:48:00;;;;;;;13.18;8.45;;;;;;;;;;5051542;28;20025;-85
2021/03/08 05:50:26;;;;;;;13.00;8.18;;;;;;;;;;5051345;28;20054;-79
2021/03/08 05:53:11;;;;;;;13.10;8.55;;;;;;;;;;5050264;28;20025;-81
2021/03/08 05:55:56;;;;;;;14.00;8.80;;;;;;;;;;5050020;28;20116;-85
2021/03/08 05:58:40;;;;;;;12.20;8.07;;;;;;;;;;5052914;28;20420;-85
2021/03/08 06:01:27;;;;;;;13.27;8.45;;;;;;;;;;5055507;28;20027;-85
2021/03/08 06:04:02;;;;;;;14.18;9.25;;;;;;;;;;5055420;28;20021;-86
2021/03/08 06:06:48;;;;;;;14.98;8.32;;;;;;;;;;5054221;28;20124;-86
2021/03/08 06:09:22;;;;;;;12.20;8.40;;;;;;;;;;5055574;28;20025;-86
2021/03/08 06:11:54;;;;;;;12.02;8.07;;;;;;;;;;5054189;28;20025;-86
2021/03/08 06:14:23;;;;;;;10.95;8.25;;;;;;;;;;5055246;28;20056;-87
2021/03/08 06:16:50;;;;;;;12.38;8.57;;;;;;;;;;5054928;28;20029;-79
2021/03/08 06:19:18;;;;;;;11.68;8.32;;;;;;;;;;5055093;28;20095;-86
2021/03/08 06:21:44;;;;;;;12.20;8.88;;;;;;;;;;5054372;28;20025;-73
2021/03/08 06:24:11;;;;;;;14.85;9.75;;;;;;;;;;5055167;28;20519;-86
2021/03/08 06:26:38;;;;;;;12.20;8.50;;;;;;;;;;5055295;28;20065;-86
2021/03/08 06:29:08;;;;;;;11.88;8.73;;;;;;;;;;5055172;28;20021;-79
2021/03/08 06:31:36;;;;;;;14.52;8.88;;;;;;;;;;5055510;28;20045;-84
2021/03/08 06:34:03;;;;;;;13.95;9.23;;;;;;;;;;5055482;28;20021;-76
2021/03/08 06:36:29;;;;;;;14.57;9.15;;;;;;;;;;5054975;28;20024;-86
2021/03/08 06:38:55;;;;;;;13.35;8.82;;;;;;;;;;5055016;28;20021;-87
2021/03/08 06:41:21;;;;;;;13.23;8.70;;;;;;;;;;5055015;28;20020;-80
2021/03/08 06:43:48;;;;;;;14.05;8.95;;;;;;;;;;5055633;28;20086;-77
2021/03/08 06:46:15;;;;;;;13.40;8.75;;;;;;;;;;5056493;28;20033;-81
2021/03/08 06:48:42;;;;;;;14.63;9.05;;;;;;;;;;5053751;28;20021;-86
2021/03/08 06:51:15;;;;;;;13.98;9.02;;;;;;;;;;5053262;28;20075;-80
2021/03/08 06:53:42;;;;;;;14.25;9.05;;;;;;;;;;5057163;28;20036;-85
2021/03/08 06:56:11;;;;;;;11.43;8.43;;;;;;;;;;5054638;28;20024;-84
2021/03/08 06:58:37;;;;;;;12.32;8.98;;;;;;;;;;5054367;28;20092;-87
2021/03/08 07:01:03;;;;;;;15.00;9.43;;;;;;;;;;5053140;28;20036;-83
2021/03/08 07:03:31;;;;;;;14.38;8.70;;;;;;;;;;5054567;28;20032;-85
2021/03/08 07:06:10;;;;;;;13.25;8.65;;;;;;;;;;5053200;28;20037;-86
2021/03/08 07:08:36;;;;;;;16.38;8.85;;;;;;;;;;5054455;28;20025;-85
2021/03/08 07:11:13;;;;;;;11.55;7.65;;;;;;;;;;5053162;28;20032;-86
2021/03/08 07:13:39;;;;;;;11.63;7.85;;;;;;;;;;5053629;28;20017;-86
2021/03/08 07:16:05;;;;;;;10.48;7.45;;;;;;;;;;5052751;28;20048;-84
2021/03/08 07:18:32;;;;;;;11.10;8.10;;;;;;;;;;5054216;28;20101;-82
2021/03/08 07:21:17;;;;;;;10.60;7.60;;;;;;;;;;5053032;28;20029;-87
2021/03/08 07:23:43;;;;;;;11.32;7.78;;;;;;;;;;5054105;28;20025;-84
2021/03/08 07:26:11;;;;;;;12.20;6.80;;;;;;;;;;5052438;28;20060;-87
2021/03/08 07:28:38;;;;;;;10.70;6.78;;;;;;;;;;5053694;28;20088;-87
2021/03/08 07:31:04;;;;;;;11.77;7.40;;;;;;;;;;5053780;28;20105;-85
2021/03/08 07:33:30;;;;;;;13.10;7.30;;;;;;;;;;5053961;28;20024;-86
2021/03/08 07:35:56;;;;;;;9.40;6.80;;;;;;;;;;5054147;28;20103;-85
2021/03/08 07:38:32;;;;;;;11.38;7.30;;;;;;;;;;5052891;28;20044;-88
2021/03/08 07:41:10;;;;;;;10.85;7.25;;;;;;;;;;5052547;28;20054;-82
2021/03/08 07:43:36;;;;;;;11.95;7.05;;;;;;;;;;5053666;28;20052;-84
2021/03/08 07:46:02;;;;;;;11.15;7.63;;;;;;;;;;5054052;28;20504;-88
2021/03/08 07:48:28;;;;;;;10.50;7.03;;;;;;;;;;5053161;28;20021;-76
2021/03/08 07:50:54;;;;;;;10.90;7.25;;;;;;;;;;5052420;28;20056;-88
2021/03/08 07:53:27;;;;;;;10.23;6.93;;;;;;;;;;5053762;28;20021;-87
2021/03/08 07:55:53;;;;;;;10.35;7.18;;;;;;;;;;5052515;28;20036;-85
2021/03/08 07:58:19;;;;;;;12.77;6.88;;;;;;;;;;5053711;28;20028;-91
2021/03/08 08:00:45;;;;;;;10.30;7.63;;;;;;;;;;5053668;28;20021;-75
2021/03/08 08:03:11;;;;;;;9.40;6.40;;;;;;;;;;5053611;28;20036;-91
2021/03/08 08:05:37;;;;;;;11.43;6.50;;;;;;;;;;5052563;28;20025;-87
2021/03/08 08:08:05;;;;;;;9.48;6.43;;;;;;;;;;5052698;28;20021;-89
2021/03/08 08:10:32;;;;;;;14.88;6.57;;;;;;;;;;5054434;28;20009;-79
2021/03/08 08:13:01;;;;;;;17.38;7.30;;;;;;;;;;5053101;28;20025;-90
2021/03/08 08:15:27;;;;;;;14.82;6.65;;;;;;;;;;5051561;28;20044;-90
2021/03/08 08:17:55;;;;;;;14.40;6.57;;;;;;;;;;5053038;28;20229;-92
2021/03/08 08:20:21;;;;;;;14.00;6.13;;;;;;;;;;5053331;28;20078;-74
2021/03/08 08:22:55;;;;;;;20.90;6.25;;;;;;;;;;5055123;28;20021;-79
2021/03/08 08:25:22;;;;;;;14.82;6.43;;;;;;;;;;5052207;28;20041;-90
2021/03/08 08:27:49;;;;;;;22.10;6.18;;;;;;;;;;5051595;28;20432;-85
2021/03/08 08:30:16;;;;;;;20.85;6.03;;;;;;;;;;5052482;28;20104;-82
2021/03/08 08:32:48;;;;;;;17.80;5.65;;;;;;;;;;5051948;28;20039;-80
2021/03/08 08:35:18;;;;;;;17.27;6.18;;;;;;;;;;5048104;28;20021;-67
2021/03/08 08:37:44;;;;;;;19.33;5.78;;;;;;;;;;5052338;28;20489;-68
2021/03/08 08:40:10;;;;;;;18.02;5.82;;;;;;;;;;5052260;28;20097;-72
2021/03/08 08:42:37;;;;;;;13.57;5.47;;;;;;;;;;5052460;28;20541;-78
2021/03/08 08:45:23;;;;;;;11.48;4.72;;;;;;;;;;5051871;28;20048;-82
2021/03/08 08:48:05;;;;;;;11.63;4.85;;;;;;;;;;5030874;28;20083;-74
2021/03/08 08:50:44;;;;;;;13.70;4.60;;;;;;;;;;5032731;28;20028;-73
2021/03/08 08:53:10;;;;;;;12.60;4.60;;;;;;;;;;5032571;28;20390;-74
2021/03/08 08:55:36;;;;;;;10.02;5.18;;;;;;;;;;5032387;28;20057;-73
2021/03/08 08:58:38;;;;;;;10.82;4.60;;;;;;;;;;5043993;28;20044;-72
2021/03/08 09:01:04;;;;;;;10.00;4.50;;;;;;;;;;5010194;28;20026;-83
2021/03/08 09:03:49;;;;;;;8.75;4.65;;;;;;;;;;5027490;28;20051;-81
2021/03/08 09:06:34;;;;;;;11.30;4.80;;;;;;;;;;5030086;28;20033;-80
2021/03/08 09:09:00;;;;;;;12.55;4.93;;;;;;;;;;5031590;28;20108;-79
2021/03/08 09:12:01;;;;;;;10.80;4.40;;;;;;;;;;5032361;28;20029;-74
2021/03/08 09:14:36;;;;;;;9.45;4.63;;;;;;;;;;5016940;28;20045;-71
2021/03/08 09:17:22;;;;;;;7.63;4.25;;;;;;;;;;5048739;28;20072;-81
2021/03/08 09:19:52;;;;;;;7.88;4.53;;;;;;;;;;5052026;28;20540;-68
2021/03/08 09:22:21;;;;;;;10.45;4.53;;;;;;;;;;5051423;28;20025;-67
2021/03/08 09:24:47;;;;;;;8.73;4.22;;;;;;;;;;5051130;28;20024;-69
2021/03/08 09:27:33;;;;;;;10.80;5.00;;;;;;;;;;5051098;28;20025;-70
2021/03/08 09:30:08;;;;;;;6.85;4.10;;;;;;;;;;5050226;28;20426;-70
2021/03/08 09:32:35;;;;;;;8.13;4.65;;;;;;;;;;5050470;28;20473;-81
2021/03/08 09:35:05;;;;;;;9.27;4.80;;;;;;;;;;5055986;28;20497;-72
2021/03/08 09:37:31;;;;;;;9.73;4.80;;;;;;;;;;5056172;28;20021;-69
2021/03/08 09:39:58;;;;;;;10.27;4.22;;;;;;;;;;5054079;28;20025;-76
2021/03/08 09:42:24;;;;;;;7.25;4.43;;;;;;;;;;5055101;28;20128;-68
2021/03/08 09:44:50;;;;;;;7.85;4.13;;;;;;;;;;5055325;28;20029;-70
2021/03/08 09:47:17;;;;;;;9.45;4.20;;;;;;;;;;5055923;28;20032;-68
2021/03/08 09:49:55;;;;;;;7.85;3.95;;;;;;;;;;5037473;28;20064;-68
2021/03/08 09:52:41;;;;;;;16.27;4.63;;;;;;;;;;5035206;28;20071;-82
2021/03/08 09:55:09;;;;;;;10.77;4.38;;;;;;;;;;5034949;28;20029;-79
2021/03/08 09:57:36;;;;;;;8.25;3.88;;;;;;;;;;5057989;28;20029;-76
2021/03/08 10:00:09;;;;;;;9.13;4.45;;;;;;;;;;5055499;28;20032;-70
2021/03/08 10:02:35;;;;;;;6.15;3.53;;;;;;;;;;5054903;28;20017;-70
2021/03/08 10:05:01;;;;;;;10.13;4.22;;;;;;;;;;5054380;28;20029;-74
2021/03/08 10:07:28;;;;;;;8.95;4.22;;;;;;;;;;5055326;28;20115;-73
2021/03/08 10:10:26;;;;;;;7.97;4.32;;;;;;;;;;5054720;28;20031;-67
2021/03/08 10:13:02;;;;;;;7.70;4.63;;;;;;;;;;5042663;28;20036;-68
2021/03/08 10:15:37;;;;;;;7.53;4.60;;;;;;;;;;5054646;28;20107;-69
2021/03/08 10:18:03;;;;;;;7.13;4.32;;;;;;;;;;5054692;28;20021;-83
2021/03/08 10:20:30;;;;;;;6.55;4.15;;;;;;;;;;5054647;28;20029;-81
2021/03/08 10:22:56;;;;;;;6.85;4.10;;;;;;;;;;5054427;28;20017;-78
2021/03/08 10:25:24;;;;;;;6.03;4.00;;;;;;;;;;5053667;28;20025;-72
2021/03/08 10:27:53;;;;;;;6.70;4.30;;;;;;;;;;5055105;28;20052;-82
2021/03/08 10:30:20;;;;;;;5.90;3.83;;;;;;;;;;5053668;28;20066;-69
2021/03/08 10:32:47;;;;;;;7.97;3.70;;;;;;;;;;5054240;28;20554;-80
2021/03/08 10:35:15;;;;;;;6.93;3.97;;;;;;;;;;5055854;28;20025;-87
2021/03/08 10:37:41;;;;;;;8.25;3.63;;;;;;;;;;5054458;28;20032;-85
2021/03/08 10:40:08;;;;;;;8.27;3.80;;;;;;;;;;5055557;28;20599;-85
2021/03/08 10:42:36;;;;;;;6.15;3.75;;;;;;;;;;5053836;28;20029;-78
2021/03/08 10:45:03;;;;;;;6.15;3.90;;;;;;;;;;5053318;28;20036;-74
2021/03/08 10:47:29;;;;;;;6.65;3.95;;;;;;;;;;5054820;28;20397;-83
2021/03/08 10:49:55;;;;;;;9.55;3.63;;;;;;;;;;5054417;28;20112;-89
2021/03/08 10:52:22;;;;;;;6.25;3.30;;;;;;;;;;5054824;28;20021;-84
2021/03/08 10:54:48;;;;;;;6.43;4.10;;;;;;;;;;5055219;28;20021;-72
2021/03/08 10:57:15;;;;;;;6.32;3.55;;;;;;;;;;5054816;28;20032;-77
2021/03/08 10:59:46;;;;;;;7.63;3.78;;;;;;;;;;5054766;28;20017;-71
2021/03/08 11:02:15;;;;;;;7.43;3.85;;;;;;;;;;5053825;28;20025;-82
2021/03/08 11:04:42;;;;;;;5.35;3.22;;;;;;;;;;5053258;28;20036;-78
2021/03/08 11:07:08;;;;;;;7.05;3.40;;;;;;;;;;5052439;28;20033;-82
2021/03/08 11:09:35;;;;;;;5.80;3.33;;;;;;;;;;5053478;28;20028;-70
2021/03/08 11:12:01;;;;;;;5.30;3.45;;;;;;;;;;5054462;28;20021;-87
2021/03/08 11:14:28;;;;;;;5.57;3.30;;;;;;;;;;5054167;28;20048;-77
2021/03/08 11:16:58;;;;;;;5.65;3.28;;;;;;;;;;5054584;28;20432;-84
2021/03/08 11:19:25;;;;;;;4.70;3.05;;;;;;;;;;5053522;28;20130;-84
2021/03/08 11:22:21;;;;;;;5.70;3.35;;;;;;;;;;5054325;28;20025;-74
2021/03/08 11:24:51;;;;;;;5.90;3.55;;;;;;;;;;5049306;28;20033;-73
2021/03/08 11:27:23;;;;;;;7.93;3.22;;;;;;;;;;5054227;28;20040;-83
2021/03/08 11:30:00;;;;;;;5.18;3.40;;;;;;;;;;5054073;28;20108;-71
2021/03/08 11:32:27;;;;;;;6.22;3.13;;;;;;;;;;5052865;28;20026;-70
2021/03/08 11:34:54;;;;;;;6.07;3.88;;;;;;;;;;5053886;28;20028;-74
2021/03/08 11:37:21;;;;;;;6.57;3.50;;;;;;;;;;5052838;28;20071;-73
2021/03/08 11:39:52;;;;;;;12.15;3.85;;;;;;;;;;5051571;28;20025;-77
2021/03/08 11:42:19;;;;;;;5.38;3.15;;;;;;;;;;5052414;28;20021;-76
2021/03/08 11:44:45;;;;;;;10.70;3.60;;;;;;;;;;5051853;28;20111;-70
2021/03/08 11:47:12;;;;;;;6.75;3.20;;;;;;;;;;5052769;28;20061;-79
2021/03/08 11:49:38;;;;;;;5.95;3.53;;;;;;;;;;5052618;28;20021;-73
2021/03/08 11:52:05;;;;;;;5.82;3.00;;;;;;;;;;5052833;28;20049;-74
2021/03/08 11:54:31;;;;;;;5.65;3.22;;;;;;;;;;5051807;28;20070;-71
2021/03/08 11:56:58;;;;;;;7.97;2.95;;;;;;;;;;5052531;28;20032;-72
2021/03/08 11:59:24;;;;;;;6.40;3.30;;;;;;;;;;5051410;28;20486;-76
2021/03/08 12:01:50;;;;;;;6.38;3.35;;;;;;;;;;5052898;28;20032;-77
2021/03/08 12:04:16;;;;;;;6.28;3.13;;;;;;;;;;5052635;28;20079;-70
2021/03/08 12:06:42;;;;;;;5.68;2.92;;;;;;;;;;5051558;28;20041;-80
2021/03/08 12:09:08;;;;;;;6.20;3.45;;;;;;;;;;5052394;28;20063;-72
2021/03/08 12:11:34;;;;;;;6.28;3.53;;;;;;;;;;5052578;28;20481;-69
2021/03/08 12:14:00;;;;;;;5.00;2.95;;;;;;;;;;5052435;28;20541;-69
2021/03/08 12:16:26;;;;;;;5.85;3.20;;;;;;;;;;5052545;28;20040;-71
2021/03/08 12:18:52;;;;;;;4.82;2.67;;;;;;;;;;5052218;28;20032;-73
2021/03/08 12:21:19;;;;;;;5.72;3.35;;;;;;;;;;5052605;28;20025;-77
2021/03/08 12:23:46;;;;;;;5.10;3.10;;;;;;;;;;5052379;28;20028;-86
2021/03/08 12:26:12;;;;;;;6.85;3.25;;;;;;;;;;5051340;28;20033;-75
2021/03/08 12:28:39;;;;;;;6.47;2.75;;;;;;;;;;5052330;28;20017;-72
2021/03/08 12:31:05;;;;;;;5.05;3.03;;;;;;;;;;5051404;28;20021;-85
2021/03/08 12:33:34;;;;;;;6.93;3.33;;;;;;;;;;5052623;28;20060;-69
2021/03/08 12:36:01;;;;;;;5.50;3.13;;;;;;;;;;5052427;28;20021;-84
2021/03/08 12:38:27;;;;;;;6.53;3.20;;;;;;;;;;5050774;28;20496;-71
2021/03/08 12:40:53;;;;;;;5.57;3.28;;;;;;;;;;5051069;28;20040;-81
2021/03/08 12:43:19;;;;;;;5.32;3.13;;;;;;;;;;5052372;28;20028;-75
2021/03/08 12:45:45;;;;;;;6.45;3.08;;;;;;;;;;5050515;28;20359;-79
2021/03/08 12:48:11;;;;;;;7.38;3.58;;;;;;;;;;5051600;28;20033;-75
2021/03/08 12:50:37;;;;;;;5.00;3.17;;;;;;;;;;5050323;28;20440;-77
2021/03/08 12:53:04;;;;;;;6.13;3.63;;;;;;;;;;5051884;28;20017;-77
2021/03/08 12:55:30;;;;;;;7.32;3.42;;;;;;;;;;5051800;28;20032;-79
2021/03/08 12:57:56;;;;;;;6.05;3.65;;;;;;;;;;5051547;28;20027;-71
2021/03/08 13:00:22;;;;;;;8.30;3.50;;;;;;;;;;5052307;28;20455;-70
2021/03/08 13:02:48;;;;;;;7.45;3.90;;;;;;;;;;5051563;28;20104;-83
2021/03/08 13:05:14;;;;;;;6.07;3.60;;;;;;;;;;5051440;28;20021;-70
2021/03/08 13:07:40;;;;;;;4.93;3.30;;;;;;;;;;5049820;28;20452;-76
2021/03/08 13:10:07;;;;;;;18.17;4.10;;;;;;;;;;5050204;28;20017;-73
2021/03/08 13:12:33;;;;;;;5.15;3.47;;;;;;;;;;5051639;28;20024;-68
2021/03/08 13:14:59;;;;;;;5.95;3.83;;;;;;;;;;5051431;28;20037;-76
2021/03/08 13:17:25;;;;;;;6.18;3.83;;;;;;;;;;5051414;28;20552;-67
2021/03/08 13:19:51;;;;;;;6.70;3.92;;;;;;;;;;5052634;28;20022;-74
2021/03/08 13:22:17;;;;;;;7.88;4.00;;;;;;;;;;5052702;28;20033;-71
2021/03/08 13:24:43;;;;;;;7.65;4.03;;;;;;;;;;5052693;28;20096;-70
2021/03/08 13:27:09;;;;;;;8.35;4.13;;;;;;;;;;5053030;28;20029;-73
2021/03/08 13:29:36;;;;;;;7.68;4.20;;;;;;;;;;5051346;28;20017;-72
2021/03/08 13:32:03;;;;;;;7.13;4.47;;;;;;;;;;5052087;28;20408;-68
2021/03/08 13:34:29;;;;;;;7.72;4.88;;;;;;;;;;5052129;28;20036;-71
2021/03/08 13:36:56;;;;;;;7.47;4.50;;;;;;;;;;5052236;28;20013;-77
2021/03/08 13:39:22;;;;;;;6.82;4.53;;;;;;;;;;5052491;28;20021;-74
2021/03/08 13:41:48;;;;;;;7.63;4.60;;;;;;;;;;5052192;28;20409;-71
2021/03/08 13:44:14;;;;;;;6.35;3.92;;;;;;;;;;5052037;28;20075;-68
2021/03/08 13:46:40;;;;;;;7.60;4.15;;;;;;;;;;5052157;28;20175;-73
2021/03/08 13:49:06;;;;;;;7.15;4.22;;;;;;;;;;5052407;28;20019;-67
2021/03/08 13:51:32;;;;;;;10.90;5.00;;;;;;;;;;5050719;28;20027;-75
2021/03/08 13:53:58;;;;;;;9.57;5.15;;;;;;;;;;5052071;28;20049;-67
2021/03/08 13:56:25;;;;;;;8.27;5.13;;;;;;;;;;5052139;28;20025;-70
2021/03/08 13:58:51;;;;;;;10.13;5.10;;;;;;;;;;5050760;28;20382;-71
2021/03/08 14:01:17;;;;;;;8.65;4.80;;;;;;;;;;5049839;28;20025;-67
2021/03/08 14:03:44;;;;;;;11.43;5.32;;;;;;;;;;5050695;28;20021;-83
2021/03/08 14:06:11;;;;;;;9.38;4.82;;;;;;;;;;5050364;28;20040;-69
2021/03/08 14:08:38;;;;;;;7.68;4.60;;;;;;;;;;5051401;28;20118;-86
2021/03/08 14:11:04;;;;;;;10.85;5.03;;;;;;;;;;5051679;28;20151;-86
2021/03/08 14:13:30;;;;;;;8.15;4.57;;;;;;;;;;5050138;28;20027;-71
2021/03/08 14:15:57;;;;;;;8.75;4.32;;;;;;;;;;5050688;28;20497;-81
2021/03/08 14:18:23;;;;;;;9.32;4.45;;;;;;;;;;5050657;28;20031;-69
2021/03/08 14:20:50;;;;;;;11.38;4.15;;;;;;;;;;5054805;28;20381;-89
2021/03/08 14:23:16;;;;;;;7.80;3.97;;;;;;;;;;5055464;28;20075;-75
2021/03/08 14:25:42;;;;;;;9.57;3.72;;;;;;;;;;5054529;28;20025;-73
2021/03/08 14:28:08;;;;;;;6.53;3.80;;;;;;;;;;5053360;28;20025;-73
2021/03/08 14:30:34;;;;;;;6.90;3.63;;;;;;;;;;5054169;28;20013;-73
2021/03/08 14:33:01;;;;;;;10.15;3.38;;;;;;;;;;5054746;28;20029;-80
2021/03/08 14:35:27;;;;;;;5.90;3.60;;;;;;;;;;5054459;28;20033;-73
2021/03/08 14:37:53;;;;;;;9.60;4.05;;;;;;;;;;5053477;28;20143;-81
2021/03/08 14:40:19;;;;;;;7.97;3.80;;;;;;;;;;5053480;28;20087;-72
2021/03/08 14:42:45;;;;;;;7.25;3.80;;;;;;;;;;5054177;28;20033;-73